Terminal Aerodrome Forecast
Issued by NWS Louisville, KY

Home | Current Version | Previous Version | Text Only | Print | Product List | Glossary On
Versions: 1 2 3 4 5 6 7 8 9 10 11 12 13 14 15 16 17
089
FTUS43 KLMK 011726
TAFLEX
TAF
KLEX 011726Z 0118/0218 22008KT P6SM BKN035
     FM012000 21005KT P6SM VCTS BKN035CB
      TEMPO 0120/0124 2SM -TSRA BKN035CB
     FM020000 20008KT P6SM SCT040 BKN200
     FM020600 20006KT P6SM SCT015 BKN200=

USA.gov is the U.S. government's official web portal to all federal, state and local government web resources and services.